Time;durP1;ratioP1;P1;durP2;ratioP2;P2;SDS_P1;SDS_P2;PMS_P1;PMS_P2;Temp;Humidity;BMP_temperature;BMP_pressure;BME280_temperature;BME280_humidity;BME280_pressure;Samples;Min_cycle;Max_cycle;Signal;HPM_P1;HPM_P2
2021/01/13 00:00:08;;;;;;;4.57;0.80;;;2.50;93.00;;;;;;5015350;28;20143;-75
2021/01/13 00:02:35;;;;;;;3.20;1.20;;;2.50;93.10;;;;;;5014408;28;20853;-74
2021/01/13 00:05:02;;;;;;;4.63;1.13;;;2.40;93.10;;;;;;5014377;28;20042;-75
2021/01/13 00:07:28;;;;;;;3.80;0.90;;;2.40;93.20;;;;;;5015133;28;20052;-75
2021/01/13 00:09:55;;;;;;;4.30;0.90;;;2.30;93.20;;;;;;5014861;28;20539;-74
2021/01/13 00:12:21;;;;;;;7.47;1.53;;;2.30;93.20;;;;;;5013938;28;20038;-74
2021/01/13 00:14:48;;;;;;;7.60;1.00;;;2.30;93.30;;;;;;5029949;28;20445;-75
2021/01/13 00:17:14;;;;;;;2.73;1.07;;;2.20;93.30;;;;;;5013779;28;20497;-75
2021/01/13 00:19:41;;;;;;;5.27;1.13;;;2.20;93.30;;;;;;4997415;28;20126;-74
2021/01/13 00:22:09;;;;;;;4.97;0.97;;;2.10;93.30;;;;;;5013612;28;20385;-75
2021/01/13 00:24:35;;;;;;;6.40;1.10;;;2.10;93.40;;;;;;5012938;28;20491;-75
2021/01/13 00:27:03;;;;;;;3.63;1.10;;;2.10;93.40;;;;;;5014246;28;20046;-75
2021/01/13 00:29:29;;;;;;;2.60;0.70;;;2.10;93.70;;;;;;5014159;28;20445;-75
2021/01/13 00:32:01;;;;;;;5.00;1.00;;;2.00;93.40;;;;;;5014589;28;20034;-74
2021/01/13 00:34:28;;;;;;;1.63;0.60;;;2.00;93.50;;;;;;5014937;28;20443;-74
2021/01/13 00:36:55;;;;;;;4.10;1.17;;;2.00;93.50;;;;;;5014922;28;20092;-74
2021/01/13 00:39:21;;;;;;;3.93;0.90;;;1.90;93.50;;;;;;5013370;28;20096;-74
2021/01/13 00:41:48;;;;;;;2.03;0.73;;;1.90;93.50;;;;;;5013452;28;20046;-75
2021/01/13 00:44:15;;;;;;;2.50;0.80;;;1.90;93.50;;;;;;5013274;28;20520;-75
2021/01/13 00:46:47;;;;;;;2.03;0.73;;;1.90;93.60;;;;;;5013632;28;20464;-75
2021/01/13 00:49:14;;;;;;;3.07;1.00;;;1.90;93.60;;;;;;5013353;28;20050;-74
2021/01/13 00:51:43;;;;;;;4.63;1.03;;;1.90;93.60;;;;;;5013462;28;20042;-74
2021/01/13 00:54:11;;;;;;;3.97;1.17;;;1.90;93.60;;;;;;5012926;28;20096;-75
2021/01/13 00:56:43;;;;;;;4.10;1.57;;;1.80;93.60;;;;;;5014080;28;20041;-74
2021/01/13 00:59:10;;;;;;;2.73;1.00;;;1.80;93.70;;;;;;5012870;28;20456;-74
2021/01/13 01:01:38;;;;;;;2.90;1.10;;;1.80;93.60;;;;;;5014196;28;20552;-75
2021/01/13 01:04:05;;;;;;;4.57;0.97;;;1.80;93.60;;;;;;5012843;28;20412;-75
2021/01/13 01:06:32;;;;;;;3.67;1.20;;;1.80;93.70;;;;;;5012762;28;20078;-75
2021/01/13 01:08:59;;;;;;;5.07;1.57;;;1.80;93.70;;;;;;5012824;28;20042;-75
2021/01/13 01:11:29;;;;;;;5.47;1.63;;;1.80;93.70;;;;;;5013784;28;20061;-75
2021/01/13 01:13:55;;;;;;;4.60;1.40;;;1.90;93.70;;;;;;5012874;28;20061;-74
2021/01/13 01:16:31;;;;;;;3.00;1.10;;;1.90;93.70;;;;;;4980176;28;20074;-75
2021/01/13 01:18:59;;;;;;;2.10;0.80;;;2.00;93.70;;;;;;5012643;28;20062;-75
2021/01/13 01:21:26;;;;;;;3.47;0.90;;;2.00;93.70;;;;;;5013896;28;20045;-75
2021/01/13 01:23:53;;;;;;;3.07;0.77;;;2.10;93.70;;;;;;5013043;28;20042;-75
2021/01/13 01:26:19;;;;;;;2.60;0.80;;;2.10;93.70;;;;;;5014014;28;20117;-75
2021/01/13 01:28:46;;;;;;;3.13;0.60;;;2.20;93.70;;;;;;5013536;28;20441;-74
2021/01/13 01:31:13;;;;;;;3.53;0.67;;;2.20;93.60;;;;;;5012657;28;20559;-75
2021/01/13 01:33:39;;;;;;;2.43;0.73;;;2.20;93.80;;;;;;5011867;28;20042;-72
2021/01/13 01:36:06;;;;;;;1.10;0.50;;;2.20;93.60;;;;;;4991696;28;20043;-72
2021/01/13 01:38:33;;;;;;;2.60;0.53;;;2.10;93.60;;;;;;5004899;28;20042;-72
2021/01/13 01:41:06;;;;;;;1.57;0.43;;;2.10;93.60;;;;;;5010221;28;20806;-72
2021/01/13 01:43:32;;;;;;;1.65;0.68;;;2.10;93.70;;;;;;5012343;28;20049;-72
2021/01/13 01:46:03;;;;;;;1.47;0.60;;;2.00;93.70;;;;;;4990122;28;20786;-72
2021/01/13 01:48:35;;;;;;;3.73;0.70;;;2.00;93.70;;;;;;5002024;28;20050;-72
2021/01/13 01:51:02;;;;;;;2.07;0.40;;;1.90;93.80;;;;;;5011712;28;20478;-72
2021/01/13 01:53:59;;;;;;;0.90;0.40;;;1.90;93.80;;;;;;5011889;28;20133;-72
2021/01/13 01:56:27;;;;;;;1.30;0.47;;;2.00;93.90;;;;;;5010434;28;20493;-72
2021/01/13 01:59:07;;;;;;;1.03;0.37;;;1.90;93.90;;;;;;4994250;28;20573;-72
2021/01/13 02:01:42;;;;;;;1.00;0.23;;;1.90;93.80;;;;;;5010712;28;20513;-72
2021/01/13 02:04:21;;;;;;;1.60;0.30;;;1.90;93.80;;;;;;5012094;28;20041;-72
2021/01/13 02:06:57;;;;;;;1.57;0.30;;;1.90;93.90;;;;;;4997781;28;20104;-72
2021/01/13 02:09:28;;;;;;;0.93;0.30;;;1.80;93.90;;;;;;5021649;28;20145;-72
2021/01/13 02:11:59;;;;;;;2.30;0.50;;;1.80;93.90;;;;;;5010830;28;20088;-72
2021/01/13 02:14:26;;;;;;;1.70;0.30;;;1.80;93.90;;;;;;5010732;28;20046;-72
2021/01/13 02:16:55;;;;;;;1.10;0.30;;;1.70;93.90;;;;;;5011628;28;20034;-71
2021/01/13 02:19:47;;;;;;;1.33;0.40;;;1.70;94.00;;;;;;5010661;28;20108;-72
2021/01/13 02:22:20;;;;;;;0.63;0.20;;;1.70;94.00;;;;;;5010531;28;20054;-72
2021/01/13 02:25:11;;;;;;;0.47;0.20;;;1.60;94.00;;;;;;5011673;28;20053;-72
2021/01/13 02:27:59;;;;;;;1.10;0.20;;;1.60;94.00;;;;;;5011314;28;20065;-72
2021/01/13 02:30:33;;;;;;;1.43;0.30;;;1.60;94.00;;;;;;5043691;28;20440;-72
2021/01/13 02:33:06;;;;;;;1.17;0.73;;;1.60;94.10;;;;;;5043609;28;20054;-72
2021/01/13 02:35:59;;;;;;;1.63;0.23;;;1.50;94.00;;;;;;5011399;28;20046;-72
2021/01/13 02:38:31;;;;;;;4.90;0.28;;;1.50;94.00;;;;;;4999790;28;20046;-72
2021/01/13 02:40:58;;;;;;;3.70;0.40;;;1.50;94.20;;;;;;5010876;28;20041;-72
2021/01/13 02:43:29;;;;;;;5.10;0.50;;;1.50;94.20;;;;;;4992974;28;20506;-72
2021/01/13 02:46:03;;;;;;;3.10;0.60;;;1.70;94.30;;;;;;5010341;28;21851;-72
2021/01/13 02:48:33;;;;;;;2.50;0.70;;;1.80;94.20;;;;;;5011388;28;20525;-72
2021/01/13 02:51:01;;;;;;;2.13;0.53;;;1.90;94.20;;;;;;5010229;28;20046;-72
2021/01/13 02:53:47;;;;;;;7.20;1.03;;;2.00;94.10;;;;;;5011595;28;20045;-72
2021/01/13 02:56:33;;;;;;;2.43;0.30;;;2.10;94.00;;;;;;5014135;28;20116;-72
2021/01/13 02:59:09;;;;;;;1.57;0.50;;;2.20;93.90;;;;;;5013622;28;20103;-72
2021/01/13 03:01:39;;;;;;;3.03;0.40;;;2.20;93.90;;;;;;5014981;28;20506;-72
2021/01/13 03:04:06;;;;;;;2.13;0.50;;;2.20;93.90;;;;;;5013480;28;20053;-71
2021/01/13 03:06:37;;;;;;;5.13;0.60;;;2.30;93.90;;;;;;5014468;28;20425;-72
2021/01/13 03:09:09;;;;;;;4.13;0.50;;;2.30;93.80;;;;;;5039008;28;20049;-72
2021/01/13 03:11:37;;;;;;;1.17;0.30;;;2.20;93.80;;;;;;5014309;28;20045;-72
2021/01/13 03:14:16;;;;;;;5.10;0.80;;;2.20;93.80;;;;;;5013278;28;20083;-72
2021/01/13 03:17:10;;;;;;;3.70;0.70;;;2.20;93.90;;;;;;5012882;28;20113;-72
2021/01/13 03:20:11;;;;;;;6.57;0.67;;;2.20;93.80;;;;;;5013849;28;20058;-72
2021/01/13 03:22:50;;;;;;;3.30;0.50;;;2.10;93.80;;;;;;5002235;28;20531;-72
2021/01/13 03:25:20;;;;;;;6.00;0.70;;;2.10;93.90;;;;;;5013697;28;20456;-72
2021/01/13 03:27:47;;;;;;;4.83;1.27;;;2.10;93.90;;;;;;5014606;28;20044;-72
2021/01/13 03:30:17;;;;;;;3.73;0.80;;;2.10;93.90;;;;;;5014539;28;20079;-72
2021/01/13 03:33:02;;;;;;;4.83;0.60;;;2.10;93.90;;;;;;5045567;28;20184;-72
2021/01/13 03:35:42;;;;;;;3.23;0.40;;;2.10;94.00;;;;;;5014241;28;20049;-72
2021/01/13 03:38:16;;;;;;;3.63;0.70;;;2.20;94.00;;;;;;5014412;28;20382;-72
2021/01/13 03:40:45;;;;;;;3.37;0.50;;;2.20;94.00;;;;;;5013035;28;20050;-72
2021/01/13 03:43:17;;;;;;;3.27;0.83;;;2.20;93.90;;;;;;5012590;28;20100;-72
2021/01/13 03:45:53;;;;;;;3.20;0.57;;;2.30;93.90;;;;;;5012910;28;20061;-72
2021/01/13 03:48:49;;;;;;;3.13;0.40;;;2.30;93.90;;;;;;5014231;28;20129;-72
2021/01/13 03:51:43;;;;;;;2.07;0.50;;;2.30;93.90;;;;;;5020485;28;20046;-72
2021/01/13 03:54:12;;;;;;;3.93;0.50;;;2.20;93.90;;;;;;5008879;28;20050;-72
2021/01/13 03:56:59;;;;;;;3.50;0.60;;;2.30;94.00;;;;;;5014000;28;20042;-72
2021/01/13 03:59:45;;;;;;;2.43;0.63;;;2.40;94.00;;;;;;5013689;28;20049;-72
2021/01/13 04:02:17;;;;;;;2.27;0.57;;;2.50;93.90;;;;;;5013232;28;20057;-72
2021/01/13 04:04:57;;;;;;;3.40;0.43;;;2.60;93.90;;;;;;5012411;28;20121;-72
2021/01/13 04:07:35;;;;;;;1.80;0.53;;;2.60;93.90;;;;;;5037988;28;20053;-72
2021/01/13 04:10:05;;;;;;;4.67;0.60;;;2.70;93.90;;;;;;5027534;28;20050;-72
2021/01/13 04:12:38;;;;;;;0.60;0.20;;;2.80;93.90;;;;;;5013541;28;20049;-72
2021/01/13 04:15:05;;;;;;;4.25;0.70;;;2.80;93.80;;;;;;5011686;28;20034;-72
2021/01/13 04:17:31;;;;;;;6.20;0.53;;;2.90;93.90;;;;;;5011962;28;20042;-72
2021/01/13 04:19:58;;;;;;;3.97;0.40;;;3.00;93.80;;;;;;4993758;28;20132;-72
2021/01/13 04:22:26;;;;;;;3.33;0.60;;;3.10;94.00;;;;;;5037367;28;20096;-72
2021/01/13 04:24:54;;;;;;;10.03;0.60;;;3.10;93.70;;;;;;5013569;28;20591;-72
2021/01/13 04:27:21;;;;;;;3.70;0.40;;;3.20;93.70;;;;;;5011985;28;20084;-72
2021/01/13 04:29:48;;;;;;;4.13;0.30;;;3.20;93.70;;;;;;4992456;28;20112;-72
2021/01/13 04:32:16;;;;;;;3.03;0.30;;;3.30;93.70;;;;;;5008747;28;20108;-72
2021/01/13 04:34:43;;;;;;;4.37;0.50;;;3.30;93.70;;;;;;5011285;28;20453;-72
2021/01/13 04:37:10;;;;;;;1.67;0.40;;;3.30;93.70;;;;;;5011850;28;20478;-72
2021/01/13 04:39:38;;;;;;;3.83;0.30;;;3.40;93.70;;;;;;5011999;28;20041;-72
2021/01/13 04:42:11;;;;;;;2.93;0.40;;;3.40;93.70;;;;;;5012129;28;20453;-72
2021/01/13 04:44:44;;;;;;;;;;;3.40;93.70;;;;;;5013148;28;20073;-72
2021/01/13 04:47:11;;;;;;;4.38;0.40;;;3.40;93.70;;;;;;5011976;28;19925;-72
2021/01/13 04:49:39;;;;;;;7.97;0.93;;;3.30;93.70;;;;;;5012551;28;20049;-72
2021/01/13 04:52:19;;;;;;;4.07;0.93;;;3.30;93.80;;;;;;5011024;28;20038;-72
2021/01/13 04:54:48;;;;;;;2.13;0.40;;;3.30;93.80;;;;;;5014388;28;20050;-72
2021/01/13 04:57:32;;;;;;;3.37;0.40;;;3.30;93.90;;;;;;5022952;28;20552;-72
2021/01/13 05:00:13;;;;;;;3.93;0.50;;;3.30;93.90;;;;;;5014951;28;20038;-72
2021/01/13 05:02:57;;;;;;;2.03;0.30;;;3.30;94.00;;;;;;5012476;28;20050;-72
2021/01/13 05:05:30;;;;;;;2.90;0.60;;;3.20;94.00;;;;;;5011904;28;20048;-72
2021/01/13 05:08:24;;;;;;;3.10;1.00;;;3.20;94.00;;;;;;5012231;28;20069;-72
2021/01/13 05:11:08;;;;;;;1.23;0.40;;;3.20;94.10;;;;;;5006255;28;20046;-72
2021/01/13 05:13:35;;;;;;;3.20;0.30;;;3.20;94.10;;;;;;5004303;28;20103;-71
2021/01/13 05:16:09;;;;;;;3.97;0.33;;;3.10;94.10;;;;;;5011391;28;20132;-71
2021/01/13 05:18:44;;;;;;;3.07;0.50;;;3.10;94.10;;;;;;5011698;28;20448;-72
2021/01/13 05:21:20;;;;;;;1.87;0.20;;;3.00;94.20;;;;;;5011090;28;20092;-71
2021/01/13 05:23:55;;;;;;;1.70;0.20;;;2.90;94.20;;;;;;5008286;28;20034;-71
2021/01/13 05:26:24;;;;;;;1.30;0.40;;;2.90;94.30;;;;;;5011281;28;20084;-71
2021/01/13 05:29:03;;;;;;;1.30;0.33;;;2.80;94.30;;;;;;5012296;28;20042;-71
2021/01/13 05:31:35;;;;;;;4.60;0.50;;;2.80;94.40;;;;;;5010874;28;20065;-71
2021/01/13 05:34:03;;;;;;;2.63;0.23;;;2.70;94.40;;;;;;5010462;28;20071;-71
2021/01/13 05:36:40;;;;;;;2.07;0.40;;;2.70;94.40;;;;;;5011039;28;20313;-71
2021/01/13 05:39:10;;;;;;;4.43;0.80;;;2.70;94.50;;;;;;5012128;28;20062;-71
2021/01/13 05:41:38;;;;;;;3.53;0.50;;;2.70;94.50;;;;;;5011975;28;20053;-71
2021/01/13 05:44:06;;;;;;;4.73;0.60;;;2.70;94.50;;;;;;5010144;28;20080;-71
2021/01/13 05:46:46;;;;;;;2.90;0.40;;;2.60;94.50;;;;;;5002441;28;20054;-71
2021/01/13 05:49:14;;;;;;;2.47;0.50;;;2.60;94.60;;;;;;5023467;28;20394;-71
2021/01/13 05:51:42;;;;;;;4.23;0.60;;;2.60;94.60;;;;;;5011930;28;20073;-72
2021/01/13 05:54:15;;;;;;;4.67;0.83;;;2.60;94.70;;;;;;5010615;28;20054;-71
2021/01/13 05:56:43;;;;;;;2.07;0.47;;;2.60;94.70;;;;;;5011424;28;20050;-71
2021/01/13 05:59:10;;;;;;;1.53;0.40;;;2.50;94.70;;;;;;4991240;28;20042;-72
2021/01/13 06:01:46;;;;;;;3.93;0.60;;;2.50;94.70;;;;;;5009291;28;20038;-72
2021/01/13 06:04:14;;;;;;;3.10;0.83;;;2.50;94.70;;;;;;5009881;28;20379;-71
2021/01/13 06:07:05;;;;;;;3.90;0.77;;;2.50;94.70;;;;;;5010592;28;20074;-71
2021/01/13 06:09:41;;;;;;;3.97;0.80;;;2.60;94.80;;;;;;5009595;28;20104;-71
2021/01/13 06:12:15;;;;;;;3.23;0.60;;;2.50;94.70;;;;;;5008874;28;20505;-71
2021/01/13 06:14:42;;;;;;;3.53;0.73;;;2.50;94.70;;;;;;5011541;28;20057;-71
2021/01/13 06:17:22;;;;;;;5.37;0.90;;;2.50;94.80;;;;;;4991053;28;20057;-71
2021/01/13 06:19:53;;;;;;;1.77;0.77;;;2.50;94.80;;;;;;5008857;28;20128;-71
2021/01/13 06:22:47;;;;;;;4.63;0.70;;;2.50;94.80;;;;;;5002399;28;20039;-71
2021/01/13 06:25:22;;;;;;;5.63;0.70;;;2.50;94.80;;;;;;5023674;28;20058;-71
2021/01/13 06:27:57;;;;;;;4.10;0.73;;;2.50;94.80;;;;;;5008556;28;20046;-71
2021/01/13 06:30:28;;;;;;;2.60;0.70;;;2.50;94.80;;;;;;5010842;28;20092;-71
2021/01/13 06:33:02;;;;;;;3.03;0.80;;;2.50;94.80;;;;;;5047202;28;20567;-73
2021/01/13 06:35:45;;;;;;;3.80;0.90;;;2.50;94.80;;;;;;5043558;28;20046;-73
2021/01/13 06:38:31;;;;;;;4.20;2.22;;;2.40;94.80;;;;;;5016806;28;20033;-74
2021/01/13 06:41:02;;;;;;;6.57;1.13;;;2.40;94.90;;;;;;5016756;28;20037;-74
2021/01/13 06:43:29;;;;;;;3.70;0.90;;;2.40;94.90;;;;;;5016458;28;20050;-74
2021/01/13 06:45:56;;;;;;;3.80;1.20;;;2.40;94.90;;;;;;5016328;28;20064;-76
2021/01/13 06:48:27;;;;;;;3.37;0.90;;;2.40;94.90;;;;;;4995606;28;20103;-76
2021/01/13 06:50:59;;;;;;;4.30;1.00;;;2.40;94.90;;;;;;5011556;28;20081;-76
2021/01/13 06:53:33;;;;;;;3.77;0.70;;;2.40;94.90;;;;;;5014561;28;20390;-77
2021/01/13 06:56:08;;;;;;;5.33;1.17;;;2.30;94.90;;;;;;5016044;28;20034;-76
2021/01/13 06:58:39;;;;;;;9.47;1.27;;;2.30;94.90;;;;;;5020332;28;20038;-76
2021/01/13 07:01:07;;;;;;;3.87;1.00;;;2.40;94.90;;;;;;5014583;28;20042;-74
2021/01/13 07:03:33;;;;;;;4.70;1.10;;;2.30;94.90;;;;;;5015831;28;20049;-74
2021/01/13 07:06:01;;;;;;;7.07;1.30;;;2.30;95.00;;;;;;5015972;28;20092;-74
2021/01/13 07:08:28;;;;;;;6.13;1.30;;;2.40;95.00;;;;;;5041938;28;20572;-74
2021/01/13 07:11:10;;;;;;;5.13;1.00;;;2.30;94.90;;;;;;5014854;28;20403;-74
2021/01/13 07:13:39;;;;;;;3.43;0.90;;;2.40;95.00;;;;;;5001935;28;20076;-71
2021/01/13 07:16:07;;;;;;;3.73;0.83;;;2.30;94.90;;;;;;5014425;28;20137;-71
2021/01/13 07:18:35;;;;;;;7.23;1.33;;;2.30;94.90;;;;;;5013261;28;20038;-71
2021/01/13 07:21:08;;;;;;;6.70;1.20;;;2.30;94.90;;;;;;5014214;28;20037;-71
2021/01/13 07:23:36;;;;;;;2.73;0.97;;;2.30;94.90;;;;;;5014581;28;20049;-71
2021/01/13 07:26:03;;;;;;;5.67;1.20;;;2.30;94.90;;;;;;5014481;28;20088;-71
2021/01/13 07:28:37;;;;;;;4.07;1.00;;;2.30;94.90;;;;;;5030158;28;20057;-71
2021/01/13 07:31:05;;;;;;;3.63;1.20;;;2.30;94.90;;;;;;5012961;28;20046;-71
2021/01/13 07:33:40;;;;;;;3.97;1.13;;;2.30;94.90;;;;;;5013090;28;20052;-71
2021/01/13 07:36:13;;;;;;;3.00;0.63;;;2.30;94.90;;;;;;5013041;28;20391;-71
2021/01/13 07:38:43;;;;;;;6.60;1.55;;;2.30;94.90;;;;;;5046046;28;20471;-71
2021/01/13 07:41:16;;;;;;;6.43;1.00;;;2.30;94.90;;;;;;5014168;28;20496;-71
2021/01/13 07:43:55;;;;;;;;;;;2.30;94.90;;;;;;5012506;28;20568;-71
2021/01/13 07:46:27;;;;;;;5.00;1.10;;;2.20;94.90;;;;;;4999582;28;20416;-71
2021/01/13 07:49:20;;;;;;;6.07;1.38;;;2.20;94.90;;;;;;5014283;28;20037;-71
2021/01/13 07:51:55;;;;;;;6.07;1.23;;;2.20;94.90;;;;;;5014278;28;20498;-72
2021/01/13 07:54:33;;;;;;;7.57;1.20;;;2.20;94.90;;;;;;5013427;28;20049;-72
2021/01/13 07:57:02;;;;;;;5.00;1.13;;;2.20;94.90;;;;;;5013960;28;20620;-71
2021/01/13 07:59:52;;;;;;;2.87;0.80;;;2.20;94.90;;;;;;5012465;28;20050;-71
2021/01/13 08:02:55;;;;;;;5.30;0.90;;;2.20;94.90;;;;;;5012627;28;20045;-72
2021/01/13 08:05:57;;;;;;;2.80;0.70;;;2.20;94.90;;;;;;5013587;28;20073;-71
2021/01/13 08:08:40;;;;;;;6.37;1.00;;;2.20;94.90;;;;;;5012604;28;20119;-71
2021/01/13 08:11:19;;;;;;;3.67;0.70;;;2.20;94.90;;;;;;5013871;28;20050;-71
2021/01/13 08:14:12;;;;;;;4.30;1.00;;;2.20;94.90;;;;;;5044844;28;20041;-71
2021/01/13 08:17:17;;;;;;;2.50;0.80;;;2.20;94.90;;;;;;5005250;28;20054;-71
2021/01/13 08:20:26;;;;;;;3.37;0.77;;;2.20;94.90;;;;;;4991169;28;20077;-71
2021/01/13 08:23:08;;;;;;;5.13;1.30;;;2.20;94.90;;;;;;5007057;28;20065;-75
2021/01/13 08:25:39;;;;;;;4.35;0.80;;;2.10;94.90;;;;;;5001077;28;20716;-77
2021/01/13 08:28:11;;;;;;;4.57;1.23;;;2.10;94.90;;;;;;4996013;28;20406;-76
2021/01/13 08:30:44;;;;;;;;;;;2.10;94.90;;;;;;5014768;28;20038;-76
2021/01/13 08:33:23;;;;;;;6.50;1.27;;;2.10;94.90;;;;;;5046194;28;20020;-77
2021/01/13 08:35:59;;;;;;;3.60;1.00;;;2.10;94.90;;;;;;5029265;28;20125;-74
2021/01/13 08:38:26;;;;;;;6.73;1.07;;;2.10;94.90;;;;;;5013425;28;20038;-75
2021/01/13 08:40:54;;;;;;;5.23;1.20;;;2.10;94.90;;;;;;5010107;28;20038;-75
2021/01/13 08:43:24;;;;;;;4.30;1.30;;;2.10;94.90;;;;;;5019698;28;20188;-75
2021/01/13 08:45:52;;;;;;;4.47;0.97;;;2.20;94.90;;;;;;5009708;28;20125;-73
2021/01/13 08:48:21;;;;;;;3.47;0.70;;;2.20;95.20;;;;;;5046076;28;20057;-74
2021/01/13 08:51:03;;;;;;;3.73;0.90;;;2.20;94.90;;;;;;5045254;28;20042;-74
2021/01/13 08:53:31;;;;;;;5.23;1.00;;;2.20;94.90;;;;;;5012734;28;20053;-74
2021/01/13 08:55:58;;;;;;;3.57;1.03;;;2.20;95.00;;;;;;5014030;28;20072;-74
2021/01/13 08:58:28;;;;;;;3.67;0.83;;;2.30;94.90;;;;;;5014271;28;20084;-74
2021/01/13 09:01:11;;;;;;;3.03;0.70;;;2.30;94.90;;;;;;5028091;28;20042;-74
2021/01/13 09:03:39;;;;;;;8.35;1.10;;;2.30;94.90;;;;;;5012826;28;20564;-74
2021/01/13 09:06:27;;;;;;;5.17;1.57;;;2.30;94.90;;;;;;4996119;28;20050;-74
2021/01/13 09:08:57;;;;;;;4.73;1.03;;;2.40;94.90;;;;;;5013589;28;20746;-74
2021/01/13 09:11:37;;;;;;;3.13;0.93;;;2.40;94.90;;;;;;4996818;28;20045;-74
2021/01/13 09:14:22;;;;;;;3.23;0.67;;;2.40;94.90;;;;;;5012509;28;20046;-74
2021/01/13 09:16:53;;;;;;;2.57;0.80;;;2.40;94.90;;;;;;5012254;28;20041;-75
2021/01/13 09:19:39;;;;;;;3.33;1.10;;;2.40;94.90;;;;;;5012474;28;20471;-74
2021/01/13 09:22:13;;;;;;;2.63;1.00;;;2.50;94.90;;;;;;4986750;28;20053;-74
2021/01/13 09:24:43;;;;;;;3.30;1.00;;;2.60;94.90;;;;;;5013772;28;20088;-74
2021/01/13 09:27:11;;;;;;;3.37;0.77;;;2.60;94.90;;;;;;5045173;28;20054;-74
2021/01/13 09:29:53;;;;;;;5.80;1.10;;;2.70;94.90;;;;;;5013411;28;20041;-74
2021/01/13 09:32:21;;;;;;;2.77;0.93;;;2.80;94.80;;;;;;5012053;28;20064;-74
2021/01/13 09:34:58;;;;;;;7.20;1.20;;;2.80;94.80;;;;;;5011594;28;20046;-74
2021/01/13 09:37:27;;;;;;;4.47;1.07;;;2.90;94.70;;;;;;5011316;28;20109;-74
2021/01/13 09:40:01;;;;;;;3.43;1.10;;;2.90;94.70;;;;;;5028430;28;20034;-74
2021/01/13 09:42:40;;;;;;;4.67;0.97;;;2.90;94.70;;;;;;5015449;28;20050;-74
2021/01/13 09:45:08;;;;;;;6.30;0.90;;;2.90;94.70;;;;;;5011891;28;20037;-74
2021/01/13 09:47:36;;;;;;;3.40;1.00;;;3.00;94.70;;;;;;5008254;28;20056;-74
2021/01/13 09:50:07;;;;;;;6.10;1.47;;;3.10;94.70;;;;;;5011983;28;20100;-75
2021/01/13 09:52:46;;;;;;;6.00;1.50;;;3.20;94.60;;;;;;5012080;28;20776;-75
2021/01/13 09:55:14;;;;;;;3.33;1.23;;;3.20;94.80;;;;;;5012094;28;20173;-75
2021/01/13 09:57:41;;;;;;;3.80;1.20;;;3.30;94.80;;;;;;5010881;28;20104;-75
2021/01/13 10:00:11;;;;;;;6.93;1.77;;;3.30;94.40;;;;;;5011727;28;20081;-74
2021/01/13 10:02:42;;;;;;;6.53;1.38;;;3.40;94.40;;;;;;5009963;28;20044;-74
2021/01/13 10:05:11;;;;;;;3.97;1.17;;;3.40;94.60;;;;;;5012341;28;20042;-74
2021/01/13 10:07:38;;;;;;;4.90;1.27;;;3.40;94.30;;;;;;5012725;28;20045;-74
2021/01/13 10:10:07;;;;;;;5.97;1.47;;;3.40;94.30;;;;;;5012915;28;20084;-75
2021/01/13 10:12:46;;;;;;;5.10;1.27;;;3.40;94.20;;;;;;5044630;28;20050;-75
2021/01/13 10:15:14;;;;;;;6.50;1.47;;;3.40;94.20;;;;;;5007328;28;20038;-74
2021/01/13 10:17:42;;;;;;;4.57;0.97;;;3.40;94.20;;;;;;5011676;28;20056;-74
2021/01/13 10:20:17;;;;;;;4.73;1.20;;;3.50;94.20;;;;;;5013040;28;20044;-74
2021/01/13 10:22:47;;;;;;;4.90;1.40;;;3.50;94.20;;;;;;5012893;28;20497;-74
2021/01/13 10:25:28;;;;;;;6.77;1.33;;;3.50;94.20;;;;;;5010333;28;20058;-74
2021/01/13 10:27:56;;;;;;;3.23;1.33;;;3.60;94.20;;;;;;5011529;28;20107;-74
2021/01/13 10:30:25;;;;;;;6.07;1.70;;;3.60;94.20;;;;;;5010883;28;20449;-74
2021/01/13 10:32:53;;;;;;;7.70;1.53;;;3.70;94.10;;;;;;5009645;28;20486;-73
2021/01/13 10:35:35;;;;;;;6.90;2.00;;;3.80;94.00;;;;;;5009980;28;20096;-73
2021/01/13 10:38:02;;;;;;;5.43;1.77;;;3.90;94.00;;;;;;5042571;28;20046;-75
2021/01/13 10:40:29;;;;;;;7.67;1.70;;;4.00;93.90;;;;;;5011517;28;20062;-75
2021/01/13 10:42:55;;;;;;;8.53;1.60;;;4.10;93.80;;;;;;5010266;28;20108;-74
2021/01/13 10:45:24;;;;;;;10.10;1.80;;;4.20;93.70;;;;;;5012322;28;20497;-74
2021/01/13 10:48:02;;;;;;;7.53;1.47;;;4.20;93.40;;;;;;5006354;28;20045;-74
2021/01/13 10:50:31;;;;;;;6.17;1.43;;;4.20;93.40;;;;;;5044754;28;20054;-74
2021/01/13 10:53:01;;;;;;;9.10;1.63;;;4.20;93.50;;;;;;5012476;28;20038;-74
2021/01/13 10:55:30;;;;;;;6.20;1.50;;;4.20;93.50;;;;;;5035551;28;20055;-74
2021/01/13 10:57:57;;;;;;;4.80;1.50;;;4.30;93.40;;;;;;5026303;28;20049;-75
2021/01/13 11:00:27;;;;;;;11.10;1.90;;;4.40;93.30;;;;;;5012920;28;20042;-74
2021/01/13 11:02:57;;;;;;;6.50;1.37;;;4.50;93.20;;;;;;5044672;28;20050;-73
2021/01/13 11:05:25;;;;;;;5.47;1.60;;;4.60;93.20;;;;;;5044282;28;20045;-75
2021/01/13 11:07:58;;;;;;;5.53;1.27;;;4.70;93.10;;;;;;4995205;28;20046;-75
2021/01/13 11:10:25;;;;;;;3.80;1.07;;;4.70;93.00;;;;;;5011470;28;20045;-74
2021/01/13 11:13:12;;;;;;;6.87;1.00;;;4.80;93.10;;;;;;5011511;28;20034;-75
2021/01/13 11:15:40;;;;;;;4.07;1.07;;;4.90;93.10;;;;;;5021378;28;20046;-74
2021/01/13 11:18:12;;;;;;;6.53;1.57;;;5.00;93.00;;;;;;5015029;28;20046;-75
2021/01/13 11:20:39;;;;;;;;;;;5.20;92.90;;;;;;5031555;28;20061;-75
2021/01/13 11:23:10;;;;;;;11.73;3.03;;;5.20;92.70;;;;;;5020613;28;19929;-77
2021/01/13 11:25:41;;;;;;;6.80;1.67;;;5.30;92.50;;;;;;5015398;28;20044;-76
2021/01/13 11:28:10;;;;;;;6.13;1.33;;;5.40;92.50;;;;;;5006619;28;20053;-76
2021/01/13 11:30:45;;;;;;;3.60;1.17;;;5.40;92.50;;;;;;5014595;28;20136;-76
2021/01/13 11:33:15;;;;;;;9.37;1.80;;;5.50;92.60;;;;;;5014820;28;20068;-78
2021/01/13 11:35:44;;;;;;;7.67;1.50;;;5.50;92.40;;;;;;5014582;28;20053;-77
2021/01/13 11:38:33;;;;;;;6.17;1.50;;;5.60;92.30;;;;;;5014338;28;20496;-73
2021/01/13 11:41:28;;;;;;;9.77;1.77;;;5.60;92.20;;;;;;5011754;28;20533;-74
2021/01/13 11:44:10;;;;;;;7.77;1.40;;;5.70;91.80;;;;;;5013111;28;20548;-75
2021/01/13 11:46:44;;;;;;;4.57;1.13;;;5.60;91.90;;;;;;5028041;28;20088;-75
2021/01/13 11:49:39;;;;;;;6.53;1.13;;;5.60;91.90;;;;;;5014084;28;20437;-75
2021/01/13 11:52:08;;;;;;;6.03;1.20;;;5.60;91.80;;;;;;5015466;28;20092;-75
2021/01/13 11:54:36;;;;;;;4.73;1.20;;;5.50;91.70;;;;;;5026885;28;20548;-75
2021/01/13 11:57:31;;;;;;;6.60;1.30;;;5.50;91.70;;;;;;5014086;28;20441;-73
2021/01/13 12:00:18;;;;;;;4.80;1.23;;;5.50;91.70;;;;;;5013161;28;20052;-73
2021/01/13 12:02:50;;;;;;;6.60;1.00;;;5.50;91.70;;;;;;5013081;28;20066;-73
2021/01/13 12:05:28;;;;;;;3.70;1.20;;;5.60;91.70;;;;;;5027099;28;20112;-74
2021/01/13 12:08:04;;;;;;;2.67;1.10;;;5.60;91.70;;;;;;5013885;28;20049;-74
2021/01/13 12:10:53;;;;;;;5.37;1.17;;;5.70;91.80;;;;;;5025145;28;20050;-74
2021/01/13 12:13:27;;;;;;;6.57;1.30;;;5.70;91.80;;;;;;5009353;28;20042;-74
2021/01/13 12:16:04;;;;;;;7.60;1.20;;;5.80;91.60;;;;;;5012714;28;20042;-74
2021/01/13 12:18:33;;;;;;;5.77;1.40;;;5.80;91.70;;;;;;5013785;28;20049;-75
2021/01/13 12:21:14;;;;;;;4.73;1.13;;;5.80;91.60;;;;;;5013838;28;20041;-74
2021/01/13 12:23:41;;;;;;;8.50;1.23;;;5.90;91.70;;;;;;5012981;28;20494;-75
2021/01/13 12:26:34;;;;;;;8.10;1.20;;;6.00;91.30;;;;;;5003924;28;20051;-74
2021/01/13 12:29:04;;;;;;;6.45;1.17;;;6.10;91.30;;;;;;5013834;28;20042;-75
2021/01/13 12:31:41;;;;;;;7.07;1.90;;;6.00;90.60;;;;;;5022822;28;20049;-75
2021/01/13 12:34:24;;;;;;;5.53;1.97;;;6.00;90.30;;;;;;5010044;28;20434;-72
2021/01/13 12:36:52;;;;;;;6.38;0.93;;;6.00;90.30;;;;;;5042315;28;20045;-73
2021/01/13 12:39:28;;;;;;;5.00;1.00;;;6.00;90.30;;;;;;5013002;28;20489;-72
2021/01/13 12:41:56;;;;;;;6.10;1.03;;;6.10;90.10;;;;;;5013016;28;20115;-72
2021/01/13 12:44:23;;;;;;;4.93;1.00;;;6.20;88.90;;;;;;5011677;28;20045;-72
2021/01/13 12:46:54;;;;;;;7.10;0.83;;;6.30;88.50;;;;;;4991994;28;20501;-72
2021/01/13 12:49:20;;;;;;;4.73;0.80;;;6.30;87.60;;;;;;5010052;28;20104;-74
2021/01/13 12:51:55;;;;;;;3.27;0.60;;;6.40;87.40;;;;;;4993934;28;20828;-76
2021/01/13 12:54:23;;;;;;;2.53;0.80;;;6.50;87.50;;;;;;5012158;28;20445;-71
2021/01/13 12:56:51;;;;;;;4.60;0.70;;;6.50;87.10;;;;;;4994769;28;20425;-72
2021/01/13 12:59:17;;;;;;;4.63;1.23;;;6.50;86.40;;;;;;5008192;28;20042;-72
2021/01/13 13:01:46;;;;;;;5.77;1.43;;;6.50;86.30;;;;;;5011597;28;20076;-71
2021/01/13 13:04:14;;;;;;;3.33;0.50;;;6.50;86.60;;;;;;4998946;28;20041;-72
2021/01/13 13:06:41;;;;;;;3.83;0.87;;;6.50;87.00;;;;;;5027584;28;20038;-72
2021/01/13 13:09:13;;;;;;;3.60;0.60;;;6.40;87.30;;;;;;5009359;28;20092;-76
2021/01/13 13:11:41;;;;;;;5.00;0.60;;;6.30;87.50;;;;;;5014046;28;20497;-75
2021/01/13 13:14:11;;;;;;;4.73;0.80;;;6.20;86.20;;;;;;5013666;28;20379;-75
2021/01/13 13:16:37;;;;;;;6.00;1.10;;;6.10;85.80;;;;;;5011836;28;20044;-76
2021/01/13 13:19:04;;;;;;;4.33;0.60;;;6.10;85.60;;;;;;5019228;28;20106;-76
2021/01/13 13:21:42;;;;;;;5.30;0.60;;;6.10;86.00;;;;;;5013927;28;20038;-76
2021/01/13 13:24:08;;;;;;;10.07;1.50;;;6.00;86.30;;;;;;5017966;28;20090;-74
2021/01/13 13:26:35;;;;;;;5.53;0.77;;;6.00;85.10;;;;;;5015561;28;20076;-75
2021/01/13 13:29:08;;;;;;;3.90;0.70;;;6.00;83.60;;;;;;5012360;28;20402;-76